Time;durP1;ratioP1;P1;durP2;ratioP2;P2;SDS_P1;SDS_P2;PMS_P1;PMS_P2;Temp;Humidity;BMP_temperature;BMP_pressure;BME280_temperature;BME280_humidity;BME280_pressure;Samples;Min_cycle;Max_cycle;Signal;HPM_P1;HPM_P2
2023/06/23 00:00:38;;;;;;;4.38;2.92;;;;;;;25.13;65.92;99787.00;4973296;28;20050;-87
2023/06/23 00:03:05;;;;;;;3.55;2.55;;;;;;;25.13;66.17;99786.19;4985548;28;20042;-87
2023/06/23 00:05:33;;;;;;;8.93;3.03;;;;;;;25.19;65.66;99792.59;4967658;28;20121;-87
2023/06/23 00:08:00;;;;;;;4.50;2.90;;;;;;;25.15;66.04;99799.56;4944552;28;20047;-87
2023/06/23 00:10:27;;;;;;;5.35;3.47;;;;;;;25.19;64.72;99792.59;4954456;28;20326;-85
2023/06/23 00:12:54;;;;;;;4.35;3.20;;;;;;;25.07;65.69;99798.00;4984873;28;20054;-87
2023/06/23 00:15:22;;;;;;;5.47;3.83;;;;;;;25.10;66.23;99811.94;4952121;28;20546;-87
2023/06/23 00:17:50;;;;;;;6.10;3.83;;;;;;;25.18;64.93;99815.41;4939814;28;20110;-85
2023/06/23 00:20:19;;;;;;;9.20;3.50;;;;;;;25.05;65.96;99810.97;4930547;28;20042;-84
2023/06/23 00:22:46;;;;;;;7.95;3.92;;;;;;;25.12;65.44;99826.13;4956269;28;20126;-87
2023/06/23 00:25:12;;;;;;;9.02;3.60;;;;;;;25.09;65.81;99826.59;4971159;28;20062;-86
2023/06/23 00:27:41;;;;;;;4.88;3.42;;;;;;;25.01;66.03;99831.50;4974187;28;20046;-87
2023/06/23 00:30:11;;;;;;;4.40;3.33;;;;;;;25.01;65.76;99831.50;4930069;28;20053;-87
2023/06/23 00:32:39;;;;;;;5.85;3.33;;;;;;;24.97;65.53;99850.16;4968030;28;20517;-87
2023/06/23 00:35:08;;;;;;;3.50;2.97;;;;;;;24.95;65.54;99854.16;4956778;28;20054;-87
2023/06/23 00:37:39;;;;;;;4.38;2.67;;;;;;;24.95;65.22;99863.16;4985941;28;20058;-87
2023/06/23 00:40:15;;;;;;;4.38;3.00;;;;;;;24.97;64.35;99871.91;4973005;28;20051;-87
2023/06/23 00:42:54;;;;;;;5.30;2.72;;;;;;;24.85;64.42;99876.44;4953866;28;20065;-87
2023/06/23 00:45:23;;;;;;;2.97;2.38;;;;;;;24.93;64.22;99884.28;4951881;28;20049;-87
2023/06/23 00:47:51;;;;;;;5.50;2.75;;;;;;;24.90;64.36;99879.28;4984328;28;20120;-87
2023/06/23 00:50:20;;;;;;;5.75;2.70;;;;;;;24.90;64.61;99885.56;4970837;28;20354;-87
2023/06/23 00:52:50;;;;;;;3.17;2.65;;;;;;;24.89;64.50;99888.53;4959295;28;20399;-88
2023/06/23 00:55:25;;;;;;;4.40;3.17;;;;;;;24.86;62.58;99897.94;4939627;28;20043;-88
2023/06/23 00:57:54;;;;;;;4.22;3.10;;;;;;;24.83;62.23;99900.28;4967154;28;20104;-86
2023/06/23 01:00:23;;;;;;;5.15;3.65;;;;;;;24.82;62.22;99893.19;4951562;28;20149;-88
2023/06/23 01:02:52;;;;;;;5.75;3.33;;;;;;;24.81;61.74;99903.25;4982783;28;20054;-88
2023/06/23 01:05:23;;;;;;;5.15;3.78;;;;;;;24.73;60.36;99906.25;4936719;28;20059;-87
2023/06/23 01:07:58;;;;;;;4.97;3.50;;;;;;;24.58;59.82;99909.34;4969967;28;20321;-88
2023/06/23 01:10:36;;;;;;;5.57;3.90;;;;;;;24.58;61.04;99911.25;4982828;28;20896;-87
2023/06/23 01:13:33;;;;;;;5.78;4.25;;;;;;;24.52;60.64;99926.53;4970338;28;20134;-87
2023/06/23 01:16:09;;;;;;;4.82;3.50;;;;;;;24.60;59.73;99919.97;4952563;28;20047;-88
2023/06/23 01:18:44;;;;;;;6.93;4.00;;;;;;;24.62;60.60;99932.25;4966082;28;20512;-86
2023/06/23 01:21:14;;;;;;;6.25;4.20;;;;;;;24.62;61.55;99928.72;4957454;28;20575;-87
2023/06/23 01:24:01;;;;;;;5.05;3.65;;;;;;;24.49;61.96;99932.41;4949413;28;20078;-88
2023/06/23 01:26:42;;;;;;;6.47;4.18;;;;;;;24.48;62.01;99920.72;4969082;28;20054;-87
2023/06/23 01:29:09;;;;;;;5.70;3.90;;;;;;;24.61;61.79;99927.06;4967432;28;20046;-86
2023/06/23 01:31:55;;;;;;;5.68;3.97;;;;;;;24.38;62.54;99919.56;4933206;28;20492;-86
2023/06/23 01:34:26;;;;;;;8.00;3.95;;;;;;;24.49;61.77;99921.56;4963806;28;20503;-87
2023/06/23 01:37:11;;;;;;;8.07;4.00;;;;;;;24.51;61.55;99922.16;4931567;28;20055;-87
2023/06/23 01:39:41;;;;;;;6.30;4.45;;;;;;;24.53;62.01;99928.19;4949643;28;20464;-87
2023/06/23 01:42:16;;;;;;;6.63;4.07;;;;;;;24.39;62.14;99926.63;4915096;28;20567;-88
2023/06/23 01:44:46;;;;;;;6.45;4.25;;;;;;;24.46;61.94;99924.72;4932463;28;20408;-87
2023/06/23 01:47:18;;;;;;;7.05;4.47;;;;;;;24.40;61.62;99925.56;4931825;28;20423;-87
2023/06/23 01:49:47;;;;;;;7.10;4.22;;;;;;;24.42;61.95;99921.56;4923606;28;20078;-88
2023/06/23 01:52:16;;;;;;;5.63;4.45;;;;;;;24.39;61.73;99922.03;4934107;28;20063;-87
2023/06/23 01:54:43;;;;;;;6.07;4.32;;;;;;;24.40;61.86;99922.84;4953629;28;20053;-87
2023/06/23 01:57:13;;;;;;;9.50;5.10;;;;;;;24.40;61.37;99929.13;4911908;28;20665;-86
2023/06/23 01:59:42;;;;;;;7.07;4.53;;;;;;;24.40;61.30;99928.28;4959010;28;20133;-86
2023/06/23 02:02:11;;;;;;;14.00;5.10;;;;;;;24.41;60.76;99929.97;4966722;28;20052;-87
2023/06/23 02:04:41;;;;;;;8.18;4.85;;;;;;;24.40;60.56;99942.72;4951836;28;20054;-87
2023/06/23 02:07:10;;;;;;;8.75;5.15;;;;;;;24.43;59.90;99944.97;4946933;28;20075;-87
2023/06/23 02:09:37;;;;;;;10.27;5.03;;;;;;;24.33;60.40;99941.94;4951095;28;20097;-86
2023/06/23 02:12:06;;;;;;;8.43;4.75;;;;;;;24.31;60.07;99941.31;4964212;28;20427;-87
2023/06/23 02:14:34;;;;;;;8.77;4.95;;;;;;;24.31;60.00;99946.75;4966564;28;20065;-87
2023/06/23 02:17:03;;;;;;;9.02;5.47;;;;;;;24.34;59.81;99942.75;4963438;28;20054;-87
2023/06/23 02:19:31;;;;;;;10.75;5.53;;;;;;;24.26;60.04;99944.69;4964896;28;20061;-88
2023/06/23 02:21:59;;;;;;;7.05;5.22;;;;;;;24.24;60.47;99954.94;4956117;28;20058;-86
2023/06/23 02:24:26;;;;;;;12.65;5.63;;;;;;;24.25;60.35;99943.06;4991575;28;20100;-87
2023/06/23 02:26:54;;;;;;;7.97;5.68;;;;;;;24.21;60.47;99958.09;4975486;28;20531;-87
2023/06/23 02:29:21;;;;;;;10.38;5.30;;;;;;;24.18;60.54;99963.16;4960561;28;20054;-87
2023/06/23 02:31:48;;;;;;;10.07;5.97;;;;;;;24.13;60.37;99969.25;4988933;28;20047;-87
2023/06/23 02:34:15;;;;;;;14.60;5.78;;;;;;;24.14;60.35;99972.78;4967669;28;20046;-87
2023/06/23 02:36:49;;;;;;;9.00;5.68;;;;;;;24.01;60.66;99965.56;4985660;28;20046;-87
2023/06/23 02:39:18;;;;;;;9.30;5.18;;;;;;;24.12;60.42;99959.44;4994555;28;20073;-87
2023/06/23 02:41:51;;;;;;;8.70;5.50;;;;;;;24.11;60.27;99959.66;4967624;28;20518;-86
2023/06/23 02:44:26;;;;;;;12.17;5.97;;;;;;;23.97;60.75;99959.78;4955247;28;20039;-85
2023/06/23 02:46:56;;;;;;;10.52;6.22;;;;;;;24.03;61.15;99964.31;4974978;28;20057;-88
2023/06/23 02:49:27;;;;;;;10.20;5.47;;;;;;;23.94;60.66;99968.34;4976383;28;20054;-86
2023/06/23 02:51:58;;;;;;;9.65;6.45;;;;;;;23.94;61.13;99972.94;4974836;28;20054;-86
2023/06/23 02:54:26;;;;;;;8.10;5.45;;;;;;;24.01;61.35;99981.84;5004236;28;20047;-85
2023/06/23 02:56:56;;;;;;;8.45;5.75;;;;;;;23.96;61.08;99971.66;4975245;28;20122;-86
2023/06/23 02:59:25;;;;;;;8.50;5.68;;;;;;;23.96;60.76;99978.97;4950089;28;20057;-87
2023/06/23 03:01:55;;;;;;;13.75;6.65;;;;;;;23.93;61.11;99991.09;4973623;28;20105;-86
2023/06/23 03:04:22;;;;;;;8.80;5.55;;;;;;;23.88;61.71;99988.19;4973004;28;20053;-87
2023/06/23 03:06:49;;;;;;;8.93;6.07;;;;;;;23.91;61.94;99982.34;4956797;28;20053;-87
2023/06/23 03:09:16;;;;;;;12.70;6.90;;;;;;;23.87;61.70;100002.00;4964736;28;20050;-87
2023/06/23 03:11:43;;;;;;;10.85;6.13;;;;;;;23.85;62.04;100004.91;4957839;28;20650;-88
2023/06/23 03:14:10;;;;;;;10.43;5.80;;;;;;;23.85;61.89;100002.22;4958328;28;20571;-86
2023/06/23 03:16:51;;;;;;;10.52;6.88;;;;;;;23.74;62.72;100005.63;4963080;28;20529;-86
2023/06/23 03:19:30;;;;;;;12.35;6.95;;;;;;;23.68;63.07;100006.44;4955863;28;20046;-87
2023/06/23 03:22:07;;;;;;;10.98;7.30;;;;;;;23.68;63.24;100007.28;4974346;28;20054;-87
2023/06/23 03:24:39;;;;;;;10.38;7.18;;;;;;;23.71;63.14;100001.44;4980167;28;20077;-87
2023/06/23 03:27:09;;;;;;;13.32;7.88;;;;;;;23.70;63.22;100012.50;4969058;28;20050;-87
2023/06/23 03:30:02;;;;;;;12.15;7.70;;;;;;;23.64;62.96;100016.09;4975452;28;20114;-87
2023/06/23 03:32:33;;;;;;;13.40;8.20;;;;;;;23.68;62.55;100012.69;4978955;28;20105;-87
2023/06/23 03:35:18;;;;;;;15.27;7.95;;;;;;;23.59;62.71;100004.00;4970494;28;20046;-88
2023/06/23 03:37:50;;;;;;;13.05;7.80;;;;;;;23.68;62.17;100009.97;4930761;28;20047;-88
2023/06/23 03:40:19;;;;;;;14.23;8.48;;;;;;;23.67;62.25;100016.47;4990156;28;20411;-89
2023/06/23 03:43:16;;;;;;;11.02;7.38;;;;;;;23.54;62.89;100014.66;4949857;28;20088;-87
2023/06/23 03:45:46;;;;;;;15.07;8.65;;;;;;;23.59;62.44;100022.97;4992800;28;20064;-87
2023/06/23 03:48:13;;;;;;;14.27;8.23;;;;;;;23.60;62.51;100027.34;4975560;28;20061;-88
2023/06/23 03:50:41;;;;;;;13.13;7.80;;;;;;;23.58;62.07;100021.31;4969380;28;20105;-87
2023/06/23 03:53:10;;;;;;;16.42;8.85;;;;;;;23.55;62.60;100026.31;4987822;28;20119;-88
2023/06/23 03:55:38;;;;;;;12.98;8.13;;;;;;;23.66;62.21;100027.50;4993039;28;20543;-87
2023/06/23 03:58:07;;;;;;;11.88;7.85;;;;;;;23.67;62.14;100048.19;5000318;28;20538;-87
2023/06/23 04:00:35;;;;;;;13.75;8.23;;;;;;;23.61;62.34;100039.03;4955060;28;20054;-89
2023/06/23 04:03:06;;;;;;;15.18;8.82;;;;;;;23.61;62.07;100033.63;4970318;28;20042;-86
2023/06/23 04:05:33;;;;;;;12.90;9.32;;;;;;;23.72;61.48;100035.66;4944382;28;20067;-89
2023/06/23 04:08:03;;;;;;;16.67;9.07;;;;;;;23.65;61.83;100044.84;4966165;28;20412;-87
2023/06/23 04:10:30;;;;;;;14.73;9.48;;;;;;;23.56;62.46;100039.69;5016368;28;20161;-86
2023/06/23 04:12:58;;;;;;;14.75;8.80;;;;;;;23.53;62.27;100045.50;4986921;28;20054;-86
2023/06/23 04:15:27;;;;;;;18.40;10.80;;;;;;;23.49;62.47;100049.72;4943609;28;20042;-86
2023/06/23 04:17:55;;;;;;;17.13;10.65;;;;;;;23.53;62.67;100059.06;4960121;28;20164;-87
2023/06/23 04:20:23;;;;;;;14.57;10.43;;;;;;;23.48;62.94;100061.56;4974512;28;20046;-87
2023/06/23 04:22:50;;;;;;;17.50;11.00;;;;;;;23.52;62.74;100062.00;4950145;28;20135;-88
2023/06/23 04:25:19;;;;;;;19.33;10.68;;;;;;;23.50;63.06;100070.34;4950381;28;20121;-88
2023/06/23 04:27:48;;;;;;;17.27;10.85;;;;;;;23.49;62.94;100079.53;4985219;28;20089;-87
2023/06/23 04:30:16;;;;;;;20.63;11.02;;;;;;;23.52;63.00;100083.69;4971600;28;20098;-88
2023/06/23 04:32:44;;;;;;;18.17;11.27;;;;;;;23.48;63.22;100077.00;4971878;28;20454;-86
2023/06/23 04:35:11;;;;;;;17.58;11.68;;;;;;;23.47;63.63;100088.91;4970057;28;20561;-86
2023/06/23 04:37:41;;;;;;;18.77;11.65;;;;;;;23.45;63.92;100091.00;4964727;28;20051;-86
2023/06/23 04:40:14;;;;;;;20.30;12.15;;;;;;;23.41;63.90;100087.91;4954547;28;20055;-86
2023/06/23 04:42:51;;;;;;;18.85;12.93;;;;;;;23.35;64.44;100096.88;4969387;28;20109;-87
2023/06/23 04:45:22;;;;;;;20.38;13.00;;;;;;;23.42;64.23;100099.56;4965381;28;20470;-86
2023/06/23 04:47:54;;;;;;;22.80;13.77;;;;;;;23.37;65.04;100108.31;4958018;28;20100;-89
2023/06/23 04:50:31;;;;;;;20.90;13.10;;;;;;;23.37;64.86;100108.31;4930905;28;20570;-88
2023/06/23 04:53:20;;;;;;;24.00;14.57;;;;;;;23.36;65.02;100107.50;4891092;28;20046;-88
2023/06/23 04:55:57;;;;;;;23.65;15.32;;;;;;;23.35;65.12;100105.81;4896461;28;20045;-88
2023/06/23 04:58:25;;;;;;;22.80;14.70;;;;;;;23.38;64.96;100118.97;4960040;28;20451;-87
2023/06/23 05:00:53;;;;;;;22.70;15.40;;;;;;;23.38;65.02;100127.09;4981203;28;20100;-87
2023/06/23 05:03:21;;;;;;;25.67;16.27;;;;;;;23.31;65.43;100134.41;4984596;28;20046;-87
2023/06/23 05:05:52;;;;;;;31.77;15.90;;;;;;;23.28;65.15;100137.53;4948794;28;20114;-86
2023/06/23 05:08:20;;;;;;;24.83;14.70;;;;;;;23.32;65.90;100148.78;4946360;28;20045;-87
2023/06/23 05:10:47;;;;;;;24.55;15.93;;;;;;;23.30;65.82;100142.72;4964257;28;20074;-88
2023/06/23 05:13:17;;;;;;;22.67;14.98;;;;;;;23.34;65.36;100157.53;4944381;28;20054;-86
2023/06/23 05:15:46;;;;;;;30.33;15.38;;;;;;;23.31;65.80;100155.25;4969894;28;20654;-86
2023/06/23 05:18:16;;;;;;;26.92;15.52;;;;;;;23.30;65.91;100154.41;4979671;28;20520;-88
2023/06/23 05:20:44;;;;;;;25.25;15.80;;;;;;;23.30;65.72;100146.28;4993171;28;20055;-87
2023/06/23 05:23:12;;;;;;;25.52;16.33;;;;;;;23.43;64.85;100142.69;4972767;28;20069;-87
2023/06/23 05:25:40;;;;;;;31.75;19.83;;;;;;;23.36;65.11;100155.44;4965814;28;20412;-87
2023/06/23 05:28:07;;;;;;;29.75;16.50;;;;;;;23.36;65.22;100156.28;4948871;28;20440;-86
2023/06/23 05:30:35;;;;;;;26.63;16.75;;;;;;;23.36;65.17;100158.16;4949616;28;20460;-87
2023/06/23 05:33:03;;;;;;;28.75;17.85;;;;;;;23.33;65.20;100170.25;4969730;28;20053;-87
2023/06/23 05:35:31;;;;;;;28.95;18.90;;;;;;;23.35;65.27;100170.03;4964044;28;20050;-88
2023/06/23 05:38:00;;;;;;;28.83;19.08;;;;;;;23.30;65.28;100170.66;4977534;28;20045;-86
2023/06/23 05:40:27;;;;;;;28.80;18.13;;;;;;;23.26;64.93;100165.91;4964896;28;20035;-86
2023/06/23 05:42:54;;;;;;;27.92;18.55;;;;;;;23.24;65.57;100174.22;4971969;28;20043;-86
2023/06/23 05:45:21;;;;;;;28.23;17.20;;;;;;;23.21;65.82;100176.53;4968512;28;20131;-88
2023/06/23 05:47:50;;;;;;;32.50;19.85;;;;;;;23.19;65.39;100172.13;4971140;28;20050;-88
2023/06/23 05:50:25;;;;;;;33.08;19.60;;;;;;;23.12;65.63;100176.72;4979153;28;20310;-88
2023/06/23 05:52:58;;;;;;;29.35;18.23;;;;;;;23.09;65.90;100171.72;4959555;28;20050;-87
2023/06/23 05:55:27;;;;;;;37.42;19.65;;;;;;;23.19;65.55;100177.56;4959501;28;20459;-87
2023/06/23 05:57:59;;;;;;;32.65;21.05;;;;;;;23.20;65.67;100178.38;4964806;28;20463;-87
2023/06/23 06:00:34;;;;;;;34.25;20.98;;;;;;;23.13;65.81;100181.13;4967784;28;20048;-86
2023/06/23 06:03:06;;;;;;;38.03;22.13;;;;;;;23.25;65.92;100183.16;4959611;28;20500;-86
2023/06/23 06:05:34;;;;;;;39.72;22.65;;;;;;;23.27;65.49;100186.50;4974330;28;20066;-88
2023/06/23 06:08:02;;;;;;;36.72;23.48;;;;;;;23.25;65.69;100185.88;4980271;28;20042;-87
2023/06/23 06:10:29;;;;;;;41.88;23.17;;;;;;;23.32;64.72;100195.66;4965126;28;20057;-87
2023/06/23 06:12:59;;;;;;;41.70;24.27;;;;;;;23.21;64.76;100200.91;4976604;28;20284;-87
2023/06/23 06:15:26;;;;;;;39.20;23.98;;;;;;;23.23;65.20;100215.06;4966228;28;20085;-87
2023/06/23 06:17:54;;;;;;;39.90;22.65;;;;;;;23.22;64.59;100213.41;4959492;28;20049;-86
2023/06/23 06:20:21;;;;;;;38.15;21.55;;;;;;;23.23;65.27;100226.75;4959744;28;20210;-88
2023/06/23 06:22:50;;;;;;;38.63;22.48;;;;;;;23.19;65.54;100225.50;4957628;28;20499;-87
2023/06/23 06:25:22;;;;;;;36.10;22.38;;;;;;;23.21;65.31;100228.84;4969763;28;20138;-87
2023/06/23 06:27:50;;;;;;;41.55;23.88;;;;;;;23.16;65.04;100231.34;4947009;28;20057;-86
2023/06/23 06:30:18;;;;;;;38.28;22.02;;;;;;;23.17;65.34;100236.53;4971773;28;20051;-87
2023/06/23 06:32:45;;;;;;;39.83;23.00;;;;;;;23.19;65.65;100234.44;4974885;28;20043;-87
2023/06/23 06:35:15;;;;;;;39.83;22.73;;;;;;;23.19;66.35;100245.28;4965294;28;20048;-87
2023/06/23 06:37:47;;;;;;;35.55;22.45;;;;;;;23.19;65.65;100244.47;4968805;28;20496;-86
2023/06/23 06:40:16;;;;;;;39.88;23.27;;;;;;;23.20;65.71;100246.09;4930219;28;20050;-86
2023/06/23 06:42:43;;;;;;;39.97;22.65;;;;;;;23.16;65.34;100245.72;4944175;28;20062;-87
2023/06/23 06:45:10;;;;;;;35.83;22.13;;;;;;;23.17;64.61;100258.19;4960529;28;20090;-86
2023/06/23 06:47:42;;;;;;;34.65;21.80;;;;;;;23.24;63.53;100258.22;4949902;28;20116;-87
2023/06/23 06:50:13;;;;;;;33.28;20.98;;;;;;;23.18;64.27;100268.00;4939479;28;20050;-86
2023/06/23 06:52:40;;;;;;;36.78;20.58;;;;;;;23.24;64.81;100269.06;4982047;28;20354;-85
2023/06/23 06:55:18;;;;;;;34.63;18.63;;;;;;;23.21;64.88;100271.34;4965462;28;20073;-85
2023/06/23 06:57:47;;;;;;;29.17;17.17;;;;;;;23.30;64.32;100270.91;4939043;28;20144;-87
2023/06/23 07:00:17;;;;;;;26.23;17.10;;;;;;;23.37;63.96;100282.59;4946221;28;20071;-87
2023/06/23 07:02:45;;;;;;;26.30;15.20;;;;;;;23.46;63.90;100285.94;4941729;28;20579;-86
2023/06/23 07:05:13;;;;;;;22.40;13.45;;;;;;;23.44;63.29;100289.91;4979864;28;20047;-86
2023/06/23 07:07:40;;;;;;;20.77;12.77;;;;;;;23.48;61.70;100288.44;4975586;28;20141;-85
2023/06/23 07:10:07;;;;;;;19.38;12.95;;;;;;;23.41;61.53;100293.88;4953040;28;20046;-87
2023/06/23 07:12:34;;;;;;;18.35;11.35;;;;;;;23.40;61.46;100301.13;4965560;28;20050;-87
2023/06/23 07:15:02;;;;;;;17.00;11.23;;;;;;;23.41;60.72;100304.72;4965699;28;20315;-86
2023/06/23 07:17:29;;;;;;;18.80;11.07;;;;;;;23.39;59.35;100304.91;4976101;28;20050;-84
2023/06/23 07:19:56;;;;;;;21.35;11.23;;;;;;;23.36;59.02;100302.63;4967244;28;20058;-86
2023/06/23 07:22:23;;;;;;;13.93;9.65;;;;;;;23.31;58.94;100309.72;4951703;28;20074;-86
2023/06/23 07:24:50;;;;;;;13.32;9.32;;;;;;;23.30;58.55;100311.56;4956962;28;20046;-88
2023/06/23 07:27:17;;;;;;;12.95;9.20;;;;;;;23.41;58.61;100320.97;4968628;28;20046;-88
2023/06/23 07:29:44;;;;;;;15.95;9.60;;;;;;;23.40;57.62;100308.44;4968709;28;20081;-87
2023/06/23 07:32:11;;;;;;;13.43;8.88;;;;;;;23.41;57.52;100312.84;4948257;28;20101;-87
2023/06/23 07:34:38;;;;;;;12.65;8.02;;;;;;;23.37;56.75;100308.88;4984889;28;20149;-87
2023/06/23 07:37:05;;;;;;;11.80;7.68;;;;;;;23.39;57.26;100320.34;4982746;28;20054;-87
2023/06/23 07:39:32;;;;;;;13.90;8.77;;;;;;;23.40;57.21;100322.81;4944319;28;20081;-86
2023/06/23 07:41:59;;;;;;;13.15;7.95;;;;;;;23.43;57.40;100318.84;4961827;28;20113;-87
2023/06/23 07:44:26;;;;;;;13.45;8.32;;;;;;;23.55;57.55;100333.47;4968249;28;20046;-88
2023/06/23 07:46:53;;;;;;;16.83;9.82;;;;;;;23.56;56.58;100328.88;4960148;28;20400;-88
2023/06/23 07:49:20;;;;;;;15.05;8.18;;;;;;;23.42;56.59;100336.19;4979392;28;20041;-87
2023/06/23 07:51:47;;;;;;;11.25;7.95;;;;;;;23.52;57.43;100336.59;4971587;28;20062;-87
2023/06/23 07:54:14;;;;;;;10.05;7.75;;;;;;;23.64;56.64;100336.81;5007684;28;20073;-87
2023/06/23 07:56:41;;;;;;;14.63;8.95;;;;;;;23.63;56.87;100337.84;4972423;28;20050;-87
2023/06/23 07:59:08;;;;;;;12.20;7.80;;;;;;;23.65;56.71;100337.63;4970990;28;20047;-87
2023/06/23 08:01:34;;;;;;;16.23;8.40;;;;;;;23.60;55.46;100341.81;4959479;28;20642;-87
2023/06/23 08:04:01;;;;;;;12.95;7.25;;;;;;;23.62;55.24;100344.31;4973581;28;20046;-87
2023/06/23 08:06:28;;;;;;;13.13;7.57;;;;;;;23.49;54.11;100350.56;4979026;28;20574;-87
2023/06/23 08:08:55;;;;;;;11.93;7.35;;;;;;;23.55;54.41;100349.72;4970705;28;20046;-86
2023/06/23 08:11:22;;;;;;;11.45;7.75;;;;;;;23.65;54.76;100349.31;4948215;28;20134;-87
2023/06/23 08:13:50;;;;;;;13.02;7.97;;;;;;;23.64;54.22;100357.69;4952613;28;20065;-87
2023/06/23 08:16:17;;;;;;;13.73;8.25;;;;;;;23.61;54.50;100373.31;4928542;28;20422;-87
2023/06/23 08:18:45;;;;;;;12.70;7.57;;;;;;;23.52;54.04;100371.00;4950172;28;20054;-87
2023/06/23 08:21:12;;;;;;;13.30;7.55;;;;;;;23.53;53.86;100375.38;4945731;28;20055;-87
2023/06/23 08:23:40;;;;;;;11.02;7.75;;;;;;;23.55;54.05;100376.00;4933175;28;20050;-88
2023/06/23 08:26:07;;;;;;;12.70;7.70;;;;;;;23.61;53.74;100375.19;4971876;28;20410;-88
2023/06/23 08:28:34;;;;;;;15.48;7.70;;;;;;;23.68;54.00;100370.59;4967612;28;20523;-88
2023/06/23 08:31:00;;;;;;;12.60;7.88;;;;;;;23.77;54.32;100374.78;4922243;28;20254;-87
2023/06/23 08:33:27;;;;;;;14.55;7.80;;;;;;;23.79;53.16;100375.44;4942974;28;20521;-87
2023/06/23 08:35:54;;;;;;;10.63;6.80;;;;;;;23.73;52.82;100375.41;4965303;28;20042;-87
2023/06/23 08:38:23;;;;;;;13.07;7.15;;;;;;;23.85;53.14;100387.31;4934275;28;20046;-87
2023/06/23 08:40:51;;;;;;;13.25;7.38;;;;;;;23.88;52.90;100384.16;4921611;28;20054;-87
2023/06/23 08:43:25;;;;;;;12.77;8.20;;;;;;;23.88;52.33;100388.78;4950042;28;20047;-87
2023/06/23 08:45:55;;;;;;;12.77;7.28;;;;;;;23.99;52.20;100388.13;4940130;28;20053;-88
2023/06/23 08:48:27;;;;;;;12.32;7.47;;;;;;;23.97;52.42;100390.25;4950594;28;20047;-87
2023/06/23 08:50:59;;;;;;;12.35;7.85;;;;;;;24.09;53.20;100395.84;4994371;28;20137;-88
2023/06/23 08:53:26;;;;;;;13.37;8.70;;;;;;;24.11;53.00;100393.75;4982379;28;20077;-86
2023/06/23 08:55:55;;;;;;;11.00;7.68;;;;;;;24.17;52.63;100399.19;4955394;28;20281;-88
2023/06/23 08:58:24;;;;;;;14.00;7.55;;;;;;;24.14;52.34;100396.88;4983929;28;20057;-88
2023/06/23 09:00:53;;;;;;;11.10;7.15;;;;;;;24.18;52.14;100386.44;4967078;28;20054;-87
2023/06/23 09:03:22;;;;;;;14.00;8.00;;;;;;;24.19;52.12;100386.22;4974473;28;20579;-87
2023/06/23 09:05:49;;;;;;;11.57;7.28;;;;;;;24.24;51.75;100383.69;4964089;28;20043;-87
2023/06/23 09:08:16;;;;;;;10.00;7.10;;;;;;;24.19;51.29;100378.06;4971982;28;20057;-88
2023/06/23 09:10:43;;;;;;;10.98;7.32;;;;;;;24.26;51.61;100381.63;4961081;28;20085;-87
2023/06/23 09:13:16;;;;;;;13.32;7.72;;;;;;;24.31;51.11;100394.56;4991509;28;20038;-87
2023/06/23 09:15:46;;;;;;;13.23;7.95;;;;;;;24.28;50.58;100386.84;4968999;28;20121;-87
2023/06/23 09:18:30;;;;;;;11.95;7.32;;;;;;;24.32;50.01;100414.38;4965260;28;20146;-87
2023/06/23 09:20:59;;;;;;;14.57;7.18;;;;;;;24.03;48.63;100409.19;4974339;28;20050;-86
2023/06/23 09:23:26;;;;;;;9.55;7.18;;;;;;;23.98;49.58;100402.75;4977617;28;20196;-86
2023/06/23 09:25:54;;;;;;;13.07;7.35;;;;;;;23.92;49.73;100388.16;4947662;28;20055;-87
2023/06/23 09:28:27;;;;;;;14.20;6.80;;;;;;;23.94;49.68;100388.78;4947536;28;20515;-88
2023/06/23 09:30:57;;;;;;;13.13;7.20;;;;;;;24.01;49.90;100405.84;4974596;28;20125;-88
2023/06/23 09:33:25;;;;;;;11.13;7.15;;;;;;;24.03;50.04;100390.22;4979899;28;20043;-89
2023/06/23 09:35:54;;;;;;;12.13;7.68;;;;;;;24.12;49.68;100398.13;4996597;28;20058;-87
2023/06/23 09:38:23;;;;;;;12.50;7.18;;;;;;;24.23;50.29;100402.94;4932715;28;20058;-87
2023/06/23 09:41:10;;;;;;;12.40;7.88;;;;;;;24.16;48.02;100405.63;4977675;28;20051;-88
2023/06/23 09:43:45;;;;;;;11.57;7.63;;;;;;;24.18;49.14;100421.72;4960314;28;20066;-88
2023/06/23 09:46:15;;;;;;;13.10;7.93;;;;;;;24.11;49.08;100408.16;4964227;28;20042;-86
2023/06/23 09:48:46;;;;;;;14.63;7.07;;;;;;;24.01;49.27;100411.28;4969460;28;20081;-87
2023/06/23 09:51:13;;;;;;;11.70;7.40;;;;;;;24.04;49.45;100408.16;4958194;28;20069;-87
2023/06/23 09:53:41;;;;;;;12.45;7.13;;;;;;;24.07;49.09;100412.34;4973166;28;20051;-88
2023/06/23 09:56:29;;;;;;;10.15;6.70;;;;;;;24.02;49.27;100398.56;4961667;28;20050;-87
2023/06/23 09:58:56;;;;;;;13.02;7.65;;;;;;;24.09;49.33;100384.97;4958963;28;20050;-87
2023/06/23 10:01:22;;;;;;;11.95;7.18;;;;;;;24.08;48.27;100405.03;4965857;28;20053;-87
2023/06/23 10:03:51;;;;;;;12.18;6.90;;;;;;;24.13;47.97;100413.38;4973694;28;20053;-87
2023/06/23 10:06:25;;;;;;;13.93;7.57;;;;;;;24.13;47.87;100397.94;4961551;28;20062;-88
2023/06/23 10:08:56;;;;;;;11.32;7.22;;;;;;;24.13;47.84;100406.06;4948610;28;20050;-87
2023/06/23 10:11:34;;;;;;;14.18;7.03;;;;;;;24.05;47.01;100406.28;4969452;28;20050;-88
2023/06/23 10:14:06;;;;;;;12.40;7.47;;;;;;;24.23;48.19;100401.03;4950961;28;20591;-86
2023/06/23 10:16:34;;;;;;;13.55;7.05;;;;;;;24.30;48.20;100409.19;4954989;28;20053;-87
2023/06/23 10:19:03;;;;;;;14.57;7.07;;;;;;;24.34;48.96;100413.13;4972373;28;20042;-88
2023/06/23 10:21:33;;;;;;;12.75;8.15;;;;;;;24.32;47.49;100420.63;4935309;28;20173;-88
2023/06/23 10:24:03;;;;;;;10.70;7.00;;;;;;;24.23;46.96;100422.75;4974156;28;20065;-88
2023/06/23 10:26:31;;;;;;;9.25;6.20;;;;;;;24.30;47.52;100422.75;4962506;28;20042;-87
2023/06/23 10:29:00;;;;;;;12.85;7.15;;;;;;;24.14;45.51;100444.88;4938015;28;20085;-89
2023/06/23 10:31:30;;;;;;;13.13;6.68;;;;;;;24.21;46.75;100426.72;4955914;28;20496;-87
2023/06/23 10:33:58;;;;;;;12.13;7.20;;;;;;;24.23;46.83;100439.03;4976460;28;20499;-87
2023/06/23 10:36:27;;;;;;;11.50;6.10;;;;;;;24.27;46.77;100437.56;4963829;28;20050;-86
2023/06/23 10:38:54;;;;;;;12.90;6.38;;;;;;;24.23;46.77;100439.03;4960458;28;20047;-88
2023/06/23 10:41:25;;;;;;;11.98;6.88;;;;;;;24.26;47.09;100427.75;4978916;28;20050;-88
2023/06/23 10:43:55;;;;;;;10.23;6.95;;;;;;;24.22;46.95;100434.66;4944259;28;20551;-88
2023/06/23 10:46:26;;;;;;;10.40;6.38;;;;;;;24.25;47.43;100430.69;4951716;28;20046;-88
2023/06/23 10:48:53;;;;;;;10.50;6.75;;;;;;;24.32;47.29;100422.53;5000484;28;20054;-87
2023/06/23 10:51:19;;;;;;;11.00;6.40;;;;;;;24.34;46.88;100442.16;4970177;28;20403;-87
2023/06/23 10:53:57;;;;;;;12.55;7.05;;;;;;;24.26;46.11;100435.88;4946395;28;20060;-88
2023/06/23 10:56:35;;;;;;;9.27;6.22;;;;;;;24.36;46.40;100438.19;4965692;28;20047;-87
2023/06/23 10:59:16;;;;;;;9.90;6.63;;;;;;;24.33;45.46;100454.88;4985811;28;20778;-88
2023/06/23 11:02:03;;;;;;;7.93;6.15;;;;;;;24.34;44.52;100448.41;4982427;28;20054;-88
2023/06/23 11:04:38;;;;;;;11.52;6.80;;;;;;;24.50;46.03;100449.91;4978884;28;20058;-88
2023/06/23 11:07:15;;;;;;;10.50;6.40;;;;;;;24.55;45.41;100449.22;4960138;28;20535;-88
2023/06/23 11:09:44;;;;;;;9.77;6.53;;;;;;;24.60;45.82;100450.28;4959571;28;20058;-88
2023/06/23 11:12:45;;;;;;;11.38;6.10;;;;;;;24.33;43.17;100462.22;5013707;28;20042;-89
2023/06/23 11:15:23;;;;;;;11.77;7.00;;;;;;;24.40;44.33;100463.00;4965887;28;20047;-88
2023/06/23 11:18:01;;;;;;;12.20;6.93;;;;;;;24.38;44.44;100456.97;4951876;28;20053;-88
2023/06/23 11:20:30;;;;;;;9.18;6.20;;;;;;;24.44;44.90;100462.38;4977624;28;20050;-88
2023/06/23 11:23:04;;;;;;;7.90;6.20;;;;;;;24.42;44.68;100463.63;4960548;28;20046;-88
2023/06/23 11:25:47;;;;;;;11.15;6.50;;;;;;;24.39;43.81;100464.06;4964688;28;20101;-88
2023/06/23 11:28:35;;;;;;;11.43;6.55;;;;;;;24.32;44.20;100468.66;4955896;28;20048;-88
2023/06/23 11:31:10;;;;;;;10.40;6.28;;;;;;;24.34;44.89;100463.88;4964751;28;20496;-87
2023/06/23 11:33:43;;;;;;;9.90;5.88;;;;;;;24.37;44.88;100469.69;4954566;28;20408;-87